首页
METAR-TAF:

METAR-TAF

机场 :

突尼斯-迦太基国际机场

突尼斯, 突尼斯

纬度: 36-50N, 经度: 010-14E, 海拔: 3米

当前天气观测

该预报发布于21分钟前的08:30 UTC
风速9节,风向
温度 25°C
湿度 69%
气压 1016 hPa
能見度: 8000
散云层高于3000英尺, 塔状积云.
散云层高于4000英尺

METAR: DTTA 220830Z 18009KT 8000 SCT030TCU SCT040 25/19 Q1016

时间: 09:51 (08:51 UTC)

预报

该预报发布于3小时和51分钟前的05:00 UTC
预报有效从22日的 06点(UTC)到 23日的 06点(UTC)
风速16节,风向东南
能见度10公里或以上
散云层高于3000英尺
几率 30% :
短暂存在
从 22日的 06点(UTC)到 22日的 10点(UTC)
风速17节,风向多变,有时为27节阵风
散云层高于3000英尺, 塔状积云.
少量云层高于3000英尺, 积雨云.
雷暴, 小雨
成为
从 22日的 20点(UTC)到 22日的 22点(UTC)
风速5节,风向北转东北

TAF: DTTA 220500Z 2206/2306 14016KT 9999 SCT030 PROB30 TEMPO 2206/2210 VRB17G27KT -TSRA SCT030TCU FEW030CB BECMG 2220/2222 03005KT

超过4000个机场的气象观测和天气预报(METAR&TAF报告)。

可查询的气象台以黄色和红色小点在地图上表示。

将鼠标移到小点上方,可查看气象台名称。

然后点击查看天气观测和预报。

如需切换地图:点击带黑十字的绿色按钮放大地图;点击带横线的绿色按钮缩小地图;或者点击绿色箭头查看邻近地区的地图。


METAR-TAF: